Create Tblcommutelog Verified Points Advance Search
| # | Trip ID | Id Commuter | Trip Date | Trip Num | Current Lat | Current Lng | Delta Distance | Current Time | Activity | Activity Confidence | Current Speed | |
|---|---|---|---|---|---|---|---|---|---|---|---|---|
| 70421 | 260224_789275_16658099_1659 | 789275 | (not set) | (not set) | 38.915687105102 | -77.041576826219 | 0.8961 | 2026-02-24 17:08:21 | unknown | 100 | 1.895446458108 | |
| 70422 | 260224_757722_16624176_1623 | 757722 | (not set) | (not set) | 38.853505058343 | -77.395874530512 | 18.9869 | 2026-02-24 17:08:22 | unknown | 100 | 11.64984308922 | |
| 70423 | 260224_775158_16642620_1648 | 775158 | (not set) | (not set) | 38.817770597403 | -77.050972169585 | 7.2489 | 2026-02-24 17:08:23 | in_vehicle | 100 | 8.5920945577441 | |
| 70424 | 260224_787145_16655582_1651 | 787145 | (not set) | (not set) | 38.754668173965 | -77.238290452899 | 6.131 | 2026-02-24 17:08:29 | in_vehicle | 100 | 9.5889921052867 | |
| 70425 | 260224_789649_16658535_1620 | 789649 | (not set) | (not set) | 38.8120976778 | -76.808481014533 | 21.3346 | 2026-02-24 17:08:33 | in_vehicle | 100 | 13.156365392009 | |
| 70426 | 260224_781975_16654380_1631 | 781975 | (not set) | (not set) | 38.866453898528 | -77.054321103696 | 4.8107 | 2026-02-24 17:08:38 | in_vehicle | 100 | 3.7014850644184 | |
| 70427 | 260224_789454_16658317_1705 | 789454 | (not set) | (not set) | 39.151600364531 | -76.894995954317 | 1.1495 | 2026-02-24 17:08:44 | in_vehicle | 100 | 11.971711355691 | |
| 70428 | 260224_788958_16657710_1613 | 788958 | (not set) | (not set) | 38.979949129877 | -76.927939633072 | 17.5885 | 2026-02-24 17:08:51 | in_vehicle | 100 | 6.2406680554686 | |
| 70429 | 260224_769852_16636925_1626 | 769852 | (not set) | (not set) | 38.967786704538 | -77.107738048218 | 6.564 | 2026-02-24 17:09:50 | in_vehicle | 100 | 7.6175489731508 | |
| 70430 | 260224_789453_16658316_1701 | 789453 | (not set) | (not set) | 39.148531291289 | -76.89783564709 | 2.2817 | 2026-02-24 17:08:59 | in_vehicle | 100 | 12.490276896117 | |
| 70431 | 260224_785674_6441454_1707 | 785674 | (not set) | (not set) | 39.037556607989 | -77.145195214188 | 0.9997 | 2026-02-24 17:09:04 | in_vehicle | 100 | 6.6698257440968 | |
| 70432 | 260224_769852_16636925_1626 | 769852 | (not set) | (not set) | 38.962613430233 | -77.093945215158 | 5.5309 | 2026-02-24 17:05:54 | in_vehicle | 100 | 1.1757132511377 | |
| 70433 | 260224_775158_16642620_1647 | 775158 | (not set) | (not set) | 38.842036437077 | -77.04862717244 | 5.4638 | 2026-02-24 17:05:03 | in_vehicle | 100 | 9.794630164421 | |
| 70434 | 260224_789022_16657785_1625 | 789022 | (not set) | (not set) | 38.80393302699 | -77.133818755471 | 12.3268 | 2026-02-24 17:05:09 | in_vehicle | 100 | 0 | |
| 70435 | 260224_779684_16420702_1607 | 779684 | (not set) | (not set) | 39.425370179308 | -77.009301096622 | 30.313 | 2026-02-24 17:05:14 | in_vehicle | 100 | 7.9438876322119 | |
| 70436 | 260224_759518_16626069_1626 | 759518 | (not set) | (not set) | 38.896857899655 | -77.031929291594 | 3.5276 | 2026-02-24 17:05:18 | in_vehicle | 100 | 3.1113932425546 | |
| 70437 | 260224_783344_16651073_1624 | 783344 | (not set) | (not set) | 38.866358162589 | -77.056172361381 | 6.8579 | 2026-02-24 17:05:23 | still | 33 | 6.3300759072662 | |
| 70438 | 260224_783320_16661211_1623 | 783320 | (not set) | (not set) | 38.899929255053 | -77.189056109528 | 9.157 | 2026-02-24 17:05:28 | in_vehicle | 100 | -0.44703925898772 | |
| 70439 | 260224_758112_16624584_1658 | 758112 | (not set) | (not set) | 38.902834171293 | -77.039427346328 | 0.2517 | 2026-02-24 17:05:33 | on_foot | 100 | -0.44703925898772 | |
| 70440 | 260224_780514_16648188_1609 | 780514 | (not set) | (not set) | 38.886215172666 | -77.221613654789 | 17.5709 | 2026-02-24 17:05:36 | in_vehicle | 100 | 12.602036710864 |